Home   Weather   France   Carcassonne   Past weeks
Flag for France

Past Weather in Carcassonne, Occitanie, France — Yesterday and Last 2 Weeks

Currently: 68 °F. Overcast. (Weather station: Carcassonne Airport, France). See more current weather

Past Weather in Carcassonne — Graph

°F

Carcassonne Temperature Yesterday

Maximum temperature yesterday: 81 °F (at 2:00 pm)
Minimum temperature yesterday: 64 °F (at 4:30 am)
Average temperature yesterday: 73 °F

High & Low Weather Summary for the Past Weeks

 TemperatureHumidityPressure
High95 °F (Jul 20, 2:30 pm)94% (Jul 11, 6:30 am)30.21 "Hg (Jul 11, 6:30 am)
Low57 °F (Jul 13, 1:00 am)26% (Jul 20, 4:00 pm)29.77 "Hg (Jul 12, 1:00 am)
Average73 °F66%30.00 "Hg
* Reported Jul 11 3:00 am — Jul 26 3:30 am, Carcassonne. Weather by CustomWeather, © 2021

Note: Actual official high and low records may vary slightly from our data, if they occured in-between our weather recording intervals... More about our weather records

Carcassonne Weather History for the Previous 24 Hours

Scroll right to see more
 ConditionsComfort  
Time TempWeatherWind HumidityBarometerVisibility
3:30 am
Mon, Jul 26
68 °FMostly cloudy.7 mph78%29.95 "HgN/A
3:00 am68 °FPassing clouds.6 mph73%29.95 "HgN/A
2:30 am68 °FMostly cloudy.6 mph73%29.95 "HgN/A
2:00 am70 °FOvercast.6 mph69%29.95 "HgN/A
1:30 am68 °FMostly cloudy.3 mph73%29.95 "HgN/A
1:00 am68 °FOvercast.3 mph73%29.95 "HgN/A
12:30 am70 °FPassing clouds.7 mph64%29.95 "HgN/A
12:00 am72 °FPassing clouds.6 mph61%29.95 "HgN/A
11:30 pm
Sun, Jul 25
72 °FClear.7 mph61%29.95 "Hg10 mi
11:00 pm73 °FClear.9 mph57%29.92 "Hg10 mi
10:30 pm73 °FClear.8 mph57%29.92 "Hg10 mi
10:00 pm73 °FPassing clouds.6 mph53%29.92 "HgN/A
9:30 pm75 °FPassing clouds.8 mph50%29.89 "HgN/A
9:00 pm75 °FSunny.7 mph54%29.89 "Hg10 mi
8:30 pm77 °FSunny.10 mph51%29.89 "Hg10 mi
8:00 pm77 °FOvercast.7 mph51%29.89 "HgN/A
7:30 pm77 °FOvercast.10 mph51%29.89 "HgN/A
7:00 pm77 °FOvercast.8 mph54%29.89 "HgN/A
6:30 pm77 °FOvercast.9 mph51%29.89 "HgN/A
6:00 pm79 °FPartly sunny.12 mph48%29.89 "HgN/A
5:30 pm81 °FPassing clouds.14 mph45%29.89 "HgN/A
5:00 pm81 °FScattered clouds.12 mph45%29.89 "HgN/A
4:30 pm81 °FPartly sunny.10 mph48%29.89 "HgN/A
4:00 pm81 °FBroken clouds.12 mph48%29.89 "HgN/A
3:30 pm79 °FBroken clouds.10 mph51%29.89 "HgN/A
3:00 pm81 °FScattered clouds.9 mph48%29.89 "HgN/A
2:30 pm79 °FScattered clouds.12 mph51%29.89 "HgN/A
2:00 pm81 °FPartly sunny.10 mph48%29.89 "HgN/A
1:30 pm77 °FPartly sunny.12 mph54%29.89 "HgN/A
1:00 pm79 °FScattered clouds.13 mph51%29.89 "HgN/A
12:30 pm79 °FScattered clouds.13 mph54%29.89 "HgN/A
12:00 pm77 °FScattered clouds.15 mph54%29.92 "HgN/A
11:30 am75 °FScattered clouds.16 mph57%29.92 "HgN/A
11:00 am73 °FPassing clouds.17 mph61%29.92 "HgN/A
10:30 am72 °FPassing clouds.15 mph65%29.92 "HgN/A
10:00 am72 °FPassing clouds.14 mph65%29.92 "HgN/A
9:30 am70 °FPassing clouds.15 mph69%29.92 "HgN/A
9:00 am68 °FPassing clouds.14 mph73%29.92 "HgN/A
8:30 am66 °FPassing clouds.14 mph73%29.92 "HgN/A
8:00 am66 °FPassing clouds.13 mph73%29.92 "HgN/A
7:30 am64 °FPassing clouds.12 mph78%29.92 "HgN/A
7:00 am64 °FSunny.10 mph78%29.89 "Hg10 mi
6:30 am64 °FPassing clouds.9 mph83%29.89 "HgN/A
6:00 am64 °FPassing clouds.10 mph83%29.89 "HgN/A
5:30 am64 °FClear.12 mph83%29.89 "Hg10 mi
5:00 am64 °FClear.10 mph83%29.89 "Hg10 mi
4:30 am64 °FClear.9 mph83%29.89 "Hg10 mi
4:00 am66 °FPassing clouds.8 mph78%29.89 "HgN/A
Weather by CustomWeather, © 2021

See weather overview